sensor_id;sensor_type;location;lat;lon;timestamp;temperature;humidity
40622;DHT22;26324;52.040;11.528;2023-04-28T00:01:52;7.50;60.00
40622;DHT22;26324;52.040;11.528;2023-04-28T00:04:20;7.50;60.90
40622;DHT22;26324;52.040;11.528;2023-04-28T00:06:48;7.50;60.10
40622;DHT22;26324;52.040;11.528;2023-04-28T00:09:15;7.50;60.20
40622;DHT22;26324;52.040;11.528;2023-04-28T00:11:46;7.40;60.30
40622;DHT22;26324;52.040;11.528;2023-04-28T00:14:13;7.40;60.70
40622;DHT22;26324;52.040;11.528;2023-04-28T00:16:41;7.40;60.90
40622;DHT22;26324;52.040;11.528;2023-04-28T00:19:08;7.40;61.20
40622;DHT22;26324;52.040;11.528;2023-04-28T00:21:36;7.40;61.50
40622;DHT22;26324;52.040;11.528;2023-04-28T00:24:03;7.40;62.10
40622;DHT22;26324;52.040;11.528;2023-04-28T00:26:31;7.40;61.60
40622;DHT22;26324;52.040;11.528;2023-04-28T00:28:58;7.40;62.20
40622;DHT22;26324;52.040;11.528;2023-04-28T00:31:25;7.40;61.40
40622;DHT22;26324;52.040;11.528;2023-04-28T00:33:53;7.30;62.30
40622;DHT22;26324;52.040;11.528;2023-04-28T00:36:20;7.30;62.10
40622;DHT22;26324;52.040;11.528;2023-04-28T00:38:47;7.30;62.40
40622;DHT22;26324;52.040;11.528;2023-04-28T00:41:14;7.30;61.50
40622;DHT22;26324;52.040;11.528;2023-04-28T00:43:46;7.30;61.70
40622;DHT22;26324;52.040;11.528;2023-04-28T00:46:20;7.20;61.90
40622;DHT22;26324;52.040;11.528;2023-04-28T00:48:49;7.10;62.30
40622;DHT22;26324;52.040;11.528;2023-04-28T00:51:17;7.00;61.90
40622;DHT22;26324;52.040;11.528;2023-04-28T00:53:44;6.80;62.70
40622;DHT22;26324;52.040;11.528;2023-04-28T00:56:12;6.80;63.00
40622;DHT22;26324;52.040;11.528;2023-04-28T00:58:40;6.80;62.80
40622;DHT22;26324;52.040;11.528;2023-04-28T01:01:08;6.80;63.10
40622;DHT22;26324;52.040;11.528;2023-04-28T01:03:38;7.00;63.00
40622;DHT22;26324;52.040;11.528;2023-04-28T01:06:07;7.00;62.60
40622;DHT22;26324;52.040;11.528;2023-04-28T01:08:37;7.10;63.30
40622;DHT22;26324;52.040;11.528;2023-04-28T01:11:08;7.10;62.80
40622;DHT22;26324;52.040;11.528;2023-04-28T01:13:52;7.10;63.10
40622;DHT22;26324;52.040;11.528;2023-04-28T01:16:20;7.20;63.50
40622;DHT22;26324;52.040;11.528;2023-04-28T01:18:47;7.10;63.80
40622;DHT22;26324;52.040;11.528;2023-04-28T01:21:25;7.10;64.10
40622;DHT22;26324;52.040;11.528;2023-04-28T01:23:56;7.00;64.10
40622;DHT22;26324;52.040;11.528;2023-04-28T01:26:26;7.00;64.20
40622;DHT22;26324;52.040;11.528;2023-04-28T01:28:53;7.00;64.40
40622;DHT22;26324;52.040;11.528;2023-04-28T01:31:20;7.00;65.00
40622;DHT22;26324;52.040;11.528;2023-04-28T01:33:48;7.10;65.30
40622;DHT22;26324;52.040;11.528;2023-04-28T01:36:16;7.00;65.30
40622;DHT22;26324;52.040;11.528;2023-04-28T01:38:43;7.10;65.50
40622;DHT22;26324;52.040;11.528;2023-04-28T01:41:12;7.10;65.50
40622;DHT22;26324;52.040;11.528;2023-04-28T01:43:39;7.00;65.60
40622;DHT22;26324;52.040;11.528;2023-04-28T01:46:07;7.00;65.20
40622;DHT22;26324;52.040;11.528;2023-04-28T01:48:34;6.90;65.30
40622;DHT22;26324;52.040;11.528;2023-04-28T01:51:01;6.80;65.40
40622;DHT22;26324;52.040;11.528;2023-04-28T01:53:29;6.60;64.70
40622;DHT22;26324;52.040;11.528;2023-04-28T01:55:57;6.70;65.40
40622;DHT22;26324;52.040;11.528;2023-04-28T01:58:25;6.70;65.20
40622;DHT22;26324;52.040;11.528;2023-04-28T02:00:52;6.70;65.30
40622;DHT22;26324;52.040;11.528;2023-04-28T02:03:21;6.80;65.30
40622;DHT22;26324;52.040;11.528;2023-04-28T02:05:49;6.90;65.20
40622;DHT22;26324;52.040;11.528;2023-04-28T02:08:16;7.00;65.00
40622;DHT22;26324;52.040;11.528;2023-04-28T02:10:44;7.10;65.10
40622;DHT22;26324;52.040;11.528;2023-04-28T02:13:11;7.00;65.10
40622;DHT22;26324;52.040;11.528;2023-04-28T02:15:42;7.00;65.00
40622;DHT22;26324;52.040;11.528;2023-04-28T02:18:10;7.10;64.80
40622;DHT22;26324;52.040;11.528;2023-04-28T02:20:39;7.00;64.60
40622;DHT22;26324;52.040;11.528;2023-04-28T02:23:07;7.10;65.10
40622;DHT22;26324;52.040;11.528;2023-04-28T02:25:34;7.00;64.70
40622;DHT22;26324;52.040;11.528;2023-04-28T02:28:03;7.00;65.00
40622;DHT22;26324;52.040;11.528;2023-04-28T02:30:33;7.00;65.60
40622;DHT22;26324;52.040;11.528;2023-04-28T02:33:01;7.00;65.00
40622;DHT22;26324;52.040;11.528;2023-04-28T02:35:28;7.00;64.60
40622;DHT22;26324;52.040;11.528;2023-04-28T02:37:55;7.00;64.50
40622;DHT22;26324;52.040;11.528;2023-04-28T02:40:23;6.90;64.80
40622;DHT22;26324;52.040;11.528;2023-04-28T02:42:50;6.90;65.60
40622;DHT22;26324;52.040;11.528;2023-04-28T02:45:18;6.90;65.30
40622;DHT22;26324;52.040;11.528;2023-04-28T02:47:45;6.90;65.20
40622;DHT22;26324;52.040;11.528;2023-04-28T02:50:12;6.90;65.40
40622;DHT22;26324;52.040;11.528;2023-04-28T02:52:40;6.80;65.50
40622;DHT22;26324;52.040;11.528;2023-04-28T02:55:07;6.70;65.80
40622;DHT22;26324;52.040;11.528;2023-04-28T02:57:34;6.70;65.70
40622;DHT22;26324;52.040;11.528;2023-04-28T03:00:02;6.60;66.10
40622;DHT22;26324;52.040;11.528;2023-04-28T03:02:38;6.60;66.00
40622;DHT22;26324;52.040;11.528;2023-04-28T03:05:05;6.60;66.50
40622;DHT22;26324;52.040;11.528;2023-04-28T03:07:33;6.70;66.40
40622;DHT22;26324;52.040;11.528;2023-04-28T03:10:00;6.70;65.90
40622;DHT22;26324;52.040;11.528;2023-04-28T03:12:28;6.80;66.20
40622;DHT22;26324;52.040;11.528;2023-04-28T03:14:55;6.80;66.20
40622;DHT22;26324;52.040;11.528;2023-04-28T03:17:22;6.80;66.00
40622;DHT22;26324;52.040;11.528;2023-04-28T03:19:50;6.80;65.70
40622;DHT22;26324;52.040;11.528;2023-04-28T03:22:17;6.80;66.00
40622;DHT22;26324;52.040;11.528;2023-04-28T03:24:46;6.80;66.40
40622;DHT22;26324;52.040;11.528;2023-04-28T03:27:13;6.80;66.50
40622;DHT22;26324;52.040;11.528;2023-04-28T03:29:42;6.80;66.80
40622;DHT22;26324;52.040;11.528;2023-04-28T03:32:09;6.90;66.40
40622;DHT22;26324;52.040;11.528;2023-04-28T03:34:38;6.90;66.10
40622;DHT22;26324;52.040;11.528;2023-04-28T03:37:05;6.80;66.20
40622;DHT22;26324;52.040;11.528;2023-04-28T03:39:33;6.70;66.00
40622;DHT22;26324;52.040;11.528;2023-04-28T03:42:01;6.60;66.20
40622;DHT22;26324;52.040;11.528;2023-04-28T03:45:04;6.70;67.00
40622;DHT22;26324;52.040;11.528;2023-04-28T03:47:32;6.60;67.10
40622;DHT22;26324;52.040;11.528;2023-04-28T03:49:59;6.60;67.30
40622;DHT22;26324;52.040;11.528;2023-04-28T03:52:26;6.50;67.00
40622;DHT22;26324;52.040;11.528;2023-04-28T03:54:54;6.50;67.00
40622;DHT22;26324;52.040;11.528;2023-04-28T03:57:23;6.40;66.50
40622;DHT22;26324;52.040;11.528;2023-04-28T03:59:50;6.40;67.00
40622;DHT22;26324;52.040;11.528;2023-04-28T04:02:18;6.40;67.30
40622;DHT22;26324;52.040;11.528;2023-04-28T04:04:45;6.30;67.20
40622;DHT22;26324;52.040;11.528;2023-04-28T04:07:15;6.30;67.90
40622;DHT22;26324;52.040;11.528;2023-04-28T04:09:42;6.30;67.80
40622;DHT22;26324;52.040;11.528;2023-04-28T04:12:10;6.30;68.00
40622;DHT22;26324;52.040;11.528;2023-04-28T04:14:37;6.20;68.10
40622;DHT22;26324;52.040;11.528;2023-04-28T04:17:05;6.10;68.30
40622;DHT22;26324;52.040;11.528;2023-04-28T04:19:32;6.10;68.00
40622;DHT22;26324;52.040;11.528;2023-04-28T04:21:59;6.10;67.60
40622;DHT22;26324;52.040;11.528;2023-04-28T04:24:33;6.20;68.10
40622;DHT22;26324;52.040;11.528;2023-04-28T04:27:00;6.30;68.40
40622;DHT22;26324;52.040;11.528;2023-04-28T04:29:34;6.30;68.50
40622;DHT22;26324;52.040;11.528;2023-04-28T04:32:06;6.30;68.10
40622;DHT22;26324;52.040;11.528;2023-04-28T04:34:34;6.20;68.00
40622;DHT22;26324;52.040;11.528;2023-04-28T04:37:01;6.30;69.00
40622;DHT22;26324;52.040;11.528;2023-04-28T04:39:29;6.30;69.30
40622;DHT22;26324;52.040;11.528;2023-04-28T04:41:57;6.30;69.50
40622;DHT22;26324;52.040;11.528;2023-04-28T04:44:50;6.30;69.80
40622;DHT22;26324;52.040;11.528;2023-04-28T04:47:26;6.30;69.90
40622;DHT22;26324;52.040;11.528;2023-04-28T04:49:53;6.30;69.00
40622;DHT22;26324;52.040;11.528;2023-04-28T04:52:20;6.20;69.30
40622;DHT22;26324;52.040;11.528;2023-04-28T04:54:47;6.30;69.40
40622;DHT22;26324;52.040;11.528;2023-04-28T04:57:15;6.30;69.70
40622;DHT22;26324;52.040;11.528;2023-04-28T05:00:09;6.30;70.10
40622;DHT22;26324;52.040;11.528;2023-04-28T05:02:38;6.30;69.60
40622;DHT22;26324;52.040;11.528;2023-04-28T05:05:06;6.30;69.60
40622;DHT22;26324;52.040;11.528;2023-04-28T05:08:03;6.40;69.50
40622;DHT22;26324;52.040;11.528;2023-04-28T05:10:31;6.50;68.90
40622;DHT22;26324;52.040;11.528;2023-04-28T05:13:01;6.50;68.50
40622;DHT22;26324;52.040;11.528;2023-04-28T05:15:28;6.60;68.40
40622;DHT22;26324;52.040;11.528;2023-04-28T05:18:18;6.70;68.40
40622;DHT22;26324;52.040;11.528;2023-04-28T05:20:45;6.80;67.70
40622;DHT22;26324;52.040;11.528;2023-04-28T05:23:14;6.80;67.20
40622;DHT22;26324;52.040;11.528;2023-04-28T05:25:41;6.90;67.70
40622;DHT22;26324;52.040;11.528;2023-04-28T05:28:09;6.90;67.70
40622;DHT22;26324;52.040;11.528;2023-04-28T05:30:37;6.90;67.80
40622;DHT22;26324;52.040;11.528;2023-04-28T05:33:04;6.80;67.30
40622;DHT22;26324;52.040;11.528;2023-04-28T05:35:32;7.00;68.30
40622;DHT22;26324;52.040;11.528;2023-04-28T05:37:59;7.00;68.40
40622;DHT22;26324;52.040;11.528;2023-04-28T05:40:26;7.10;68.00
40622;DHT22;26324;52.040;11.528;2023-04-28T05:42:55;7.30;67.20
40622;DHT22;26324;52.040;11.528;2023-04-28T05:45:22;7.30;67.30
40622;DHT22;26324;52.040;11.528;2023-04-28T05:47:50;7.50;67.20
40622;DHT22;26324;52.040;11.528;2023-04-28T05:50:17;7.60;67.30
40622;DHT22;26324;52.040;11.528;2023-04-28T05:52:44;7.70;67.00
40622;DHT22;26324;52.040;11.528;2023-04-28T05:55:12;7.80;66.70
40622;DHT22;26324;52.040;11.528;2023-04-28T05:57:39;8.00;66.60
40622;DHT22;26324;52.040;11.528;2023-04-28T06:00:19;8.10;66.30
40622;DHT22;26324;52.040;11.528;2023-04-28T06:02:46;8.20;66.60
40622;DHT22;26324;52.040;11.528;2023-04-28T06:05:14;8.30;65.90
40622;DHT22;26324;52.040;11.528;2023-04-28T06:07:46;8.20;66.10
40622;DHT22;26324;52.040;11.528;2023-04-28T06:11:13;8.30;65.60
40622;DHT22;26324;52.040;11.528;2023-04-28T06:13:42;8.40;65.70
40622;DHT22;26324;52.040;11.528;2023-04-28T06:16:17;8.60;65.40
40622;DHT22;26324;52.040;11.528;2023-04-28T06:19:47;8.60;65.60
40622;DHT22;26324;52.040;11.528;2023-04-28T06:23:25;9.00;64.40
40622;DHT22;26324;52.040;11.528;2023-04-28T06:26:05;9.10;64.30
40622;DHT22;26324;52.040;11.528;2023-04-28T06:33:16;9.30;63.80
40622;DHT22;26324;52.040;11.528;2023-04-28T06:35:44;9.20;63.60
40622;DHT22;26324;52.040;11.528;2023-04-28T06:38:13;9.40;63.40
40622;DHT22;26324;52.040;11.528;2023-04-28T06:40:40;9.60;62.30
40622;DHT22;26324;52.040;11.528;2023-04-28T06:43:08;9.90;61.90
40622;DHT22;26324;52.040;11.528;2023-04-28T06:45:43;9.70;61.80
40622;DHT22;26324;52.040;11.528;2023-04-28T06:48:10;9.80;61.70
40622;DHT22;26324;52.040;11.528;2023-04-28T06:50:38;9.80;62.50
40622;DHT22;26324;52.040;11.528;2023-04-28T06:53:08;10.10;62.60
40622;DHT22;26324;52.040;11.528;2023-04-28T06:55:35;10.50;61.70
40622;DHT22;26324;52.040;11.528;2023-04-28T06:58:03;10.70;60.20
40622;DHT22;26324;52.040;11.528;2023-04-28T07:00:33;11.00;58.90
40622;DHT22;26324;52.040;11.528;2023-04-28T07:03:01;11.10;59.10
40622;DHT22;26324;52.040;11.528;2023-04-28T07:05:28;11.30;59.10
40622;DHT22;26324;52.040;11.528;2023-04-28T07:07:56;11.50;58.00
40622;DHT22;26324;52.040;11.528;2023-04-28T07:10:23;11.60;58.40
40622;DHT22;26324;52.040;11.528;2023-04-28T07:12:51;11.70;56.90
40622;DHT22;26324;52.040;11.528;2023-04-28T07:15:18;11.90;56.60
40622;DHT22;26324;52.040;11.528;2023-04-28T07:17:45;11.90;57.00
40622;DHT22;26324;52.040;11.528;2023-04-28T07:20:13;12.10;55.90
40622;DHT22;26324;52.040;11.528;2023-04-28T07:22:41;11.80;55.00
40622;DHT22;26324;52.040;11.528;2023-04-28T07:25:08;11.90;57.20
40622;DHT22;26324;52.040;11.528;2023-04-28T07:27:36;12.20;55.20
40622;DHT22;26324;52.040;11.528;2023-04-28T07:30:03;12.50;55.70
40622;DHT22;26324;52.040;11.528;2023-04-28T07:32:51;12.70;54.20
40622;DHT22;26324;52.040;11.528;2023-04-28T07:35:18;12.80;54.40
40622;DHT22;26324;52.040;11.528;2023-04-28T07:37:46;12.70;54.20
40622;DHT22;26324;52.040;11.528;2023-04-28T07:40:13;12.80;53.00
40622;DHT22;26324;52.040;11.528;2023-04-28T07:42:40;12.80;52.40
40622;DHT22;26324;52.040;11.528;2023-04-28T07:45:08;13.00;53.10
40622;DHT22;26324;52.040;11.528;2023-04-28T07:47:39;13.00;52.40
40622;DHT22;26324;52.040;11.528;2023-04-28T07:50:07;13.00;52.50
40622;DHT22;26324;52.040;11.528;2023-04-28T07:52:34;13.20;52.30
40622;DHT22;26324;52.040;11.528;2023-04-28T07:55:03;13.20;52.40
40622;DHT22;26324;52.040;11.528;2023-04-28T07:57:31;13.20;51.60
40622;DHT22;26324;52.040;11.528;2023-04-28T07:59:58;12.80;52.00
40622;DHT22;26324;52.040;11.528;2023-04-28T08:02:26;12.70;52.30
40622;DHT22;26324;52.040;11.528;2023-04-28T08:04:53;12.50;52.80
40622;DHT22;26324;52.040;11.528;2023-04-28T08:07:21;12.60;52.40
40622;DHT22;26324;52.040;11.528;2023-04-28T08:09:48;12.70;53.40
40622;DHT22;26324;52.040;11.528;2023-04-28T08:12:17;12.80;52.60
40622;DHT22;26324;52.040;11.528;2023-04-28T08:14:45;13.10;51.90
40622;DHT22;26324;52.040;11.528;2023-04-28T08:17:12;13.10;52.20
40622;DHT22;26324;52.040;11.528;2023-04-28T08:19:39;13.20;51.50
40622;DHT22;26324;52.040;11.528;2023-04-28T08:22:06;13.30;52.60
40622;DHT22;26324;52.040;11.528;2023-04-28T08:24:34;13.40;50.60
40622;DHT22;26324;52.040;11.528;2023-04-28T08:27:02;13.20;51.90
40622;DHT22;26324;52.040;11.528;2023-04-28T08:29:31;13.10;52.60
40622;DHT22;26324;52.040;11.528;2023-04-28T08:31:58;13.30;52.80
40622;DHT22;26324;52.040;11.528;2023-04-28T08:34:27;13.10;51.70
40622;DHT22;26324;52.040;11.528;2023-04-28T08:36:54;13.10;53.40
40622;DHT22;26324;52.040;11.528;2023-04-28T08:39:21;13.30;51.60
40622;DHT22;26324;52.040;11.528;2023-04-28T08:41:49;13.30;52.70
40622;DHT22;26324;52.040;11.528;2023-04-28T08:44:17;13.30;53.30
40622;DHT22;26324;52.040;11.528;2023-04-28T08:46:46;13.10;52.20
40622;DHT22;26324;52.040;11.528;2023-04-28T08:49:17;13.10;52.40
40622;DHT22;26324;52.040;11.528;2023-04-28T08:51:58;13.60;53.30
40622;DHT22;26324;52.040;11.528;2023-04-28T08:54:30;13.70;51.50
40622;DHT22;26324;52.040;11.528;2023-04-28T08:56:59;14.00;52.10
40622;DHT22;26324;52.040;11.528;2023-04-28T08:59:27;14.10;50.90
40622;DHT22;26324;52.040;11.528;2023-04-28T09:01:55;14.10;51.10
40622;DHT22;26324;52.040;11.528;2023-04-28T09:04:23;14.10;51.60
40622;DHT22;26324;52.040;11.528;2023-04-28T09:06:51;14.00;51.50
40622;DHT22;26324;52.040;11.528;2023-04-28T09:09:22;14.10;52.40
40622;DHT22;26324;52.040;11.528;2023-04-28T09:11:55;14.30;53.80
40622;DHT22;26324;52.040;11.528;2023-04-28T09:14:23;14.60;52.40
40622;DHT22;26324;52.040;11.528;2023-04-28T09:16:51;14.80;52.10
40622;DHT22;26324;52.040;11.528;2023-04-28T09:19:18;15.00;50.00
40622;DHT22;26324;52.040;11.528;2023-04-28T09:21:53;14.90;49.90
40622;DHT22;26324;52.040;11.528;2023-04-28T09:24:38;15.00;50.40
40622;DHT22;26324;52.040;11.528;2023-04-28T09:27:13;14.80;50.60
40622;DHT22;26324;52.040;11.528;2023-04-28T09:29:52;14.80;51.40
40622;DHT22;26324;52.040;11.528;2023-04-28T09:32:21;15.20;52.20
40622;DHT22;26324;52.040;11.528;2023-04-28T09:34:52;15.50;51.50
40622;DHT22;26324;52.040;11.528;2023-04-28T09:37:22;15.50;49.80
40622;DHT22;26324;52.040;11.528;2023-04-28T09:39:51;15.30;49.20
40622;DHT22;26324;52.040;11.528;2023-04-28T09:42:33;15.30;50.40
40622;DHT22;26324;52.040;11.528;2023-04-28T09:45:05;15.70;50.80
40622;DHT22;26324;52.040;11.528;2023-04-28T09:47:37;16.00;50.40
40622;DHT22;26324;52.040;11.528;2023-04-28T09:50:06;16.20;49.80
40622;DHT22;26324;52.040;11.528;2023-04-28T09:52:37;16.50;50.00
40622;DHT22;26324;52.040;11.528;2023-04-28T09:55:06;16.60;49.10
40622;DHT22;26324;52.040;11.528;2023-04-28T09:57:35;16.60;48.20
40622;DHT22;26324;52.040;11.528;2023-04-28T10:00:04;16.60;48.90
40622;DHT22;26324;52.040;11.528;2023-04-28T10:02:34;16.70;48.40
40622;DHT22;26324;52.040;11.528;2023-04-28T10:05:05;16.60;48.50
40622;DHT22;26324;52.040;11.528;2023-04-28T10:07:38;16.40;47.10
40622;DHT22;26324;52.040;11.528;2023-04-28T10:10:07;16.00;48.20
40622;DHT22;26324;52.040;11.528;2023-04-28T10:12:34;15.70;48.30
40622;DHT22;26324;52.040;11.528;2023-04-28T10:15:06;15.10;49.00
40622;DHT22;26324;52.040;11.528;2023-04-28T10:17:35;15.00;49.00
40622;DHT22;26324;52.040;11.528;2023-04-28T10:20:04;14.80;50.20
40622;DHT22;26324;52.040;11.528;2023-04-28T10:25:32;14.40;51.70
40622;DHT22;26324;52.040;11.528;2023-04-28T10:28:05;14.30;51.40
40622;DHT22;26324;52.040;11.528;2023-04-28T10:30:33;14.20;52.10
40622;DHT22;26324;52.040;11.528;2023-04-28T10:35:45;14.30;52.70
40622;DHT22;26324;52.040;11.528;2023-04-28T10:38:14;14.20;52.60
40622;DHT22;26324;52.040;11.528;2023-04-28T10:40:42;14.00;53.10
40622;DHT22;26324;52.040;11.528;2023-04-28T10:43:12;14.00;54.90
40622;DHT22;26324;52.040;11.528;2023-04-28T10:51:20;14.00;54.70
40622;DHT22;26324;52.040;11.528;2023-04-28T10:56:24;14.00;57.50
40622;DHT22;26324;52.040;11.528;2023-04-28T10:58:58;14.10;56.80
40622;DHT22;26324;52.040;11.528;2023-04-28T11:01:27;14.10;56.70
40622;DHT22;26324;52.040;11.528;2023-04-28T11:04:07;14.20;56.70
40622;DHT22;26324;52.040;11.528;2023-04-28T11:06:44;14.40;58.60
40622;DHT22;26324;52.040;11.528;2023-04-28T11:12:03;14.50;58.10
40622;DHT22;26324;52.040;11.528;2023-04-28T11:14:37;14.60;58.60
40622;DHT22;26324;52.040;11.528;2023-04-28T11:17:08;14.70;58.00
40622;DHT22;26324;52.040;11.528;2023-04-28T11:19:45;14.60;57.90
40622;DHT22;26324;52.040;11.528;2023-04-28T11:22:17;14.70;58.40
40622;DHT22;26324;52.040;11.528;2023-04-28T11:24:58;14.60;56.40
40622;DHT22;26324;52.040;11.528;2023-04-28T11:27:27;14.40;57.20
40622;DHT22;26324;52.040;11.528;2023-04-28T11:29:54;14.10;56.40
40622;DHT22;26324;52.040;11.528;2023-04-28T11:32:34;14.00;57.10
40622;DHT22;26324;52.040;11.528;2023-04-28T11:35:02;14.10;58.20
40622;DHT22;26324;52.040;11.528;2023-04-28T11:37:31;14.10;58.10
40622;DHT22;26324;52.040;11.528;2023-04-28T11:39:58;14.40;57.90
40622;DHT22;26324;52.040;11.528;2023-04-28T11:42:35;14.50;57.30
40622;DHT22;26324;52.040;11.528;2023-04-28T11:45:03;14.80;57.10
40622;DHT22;26324;52.040;11.528;2023-04-28T11:47:32;14.90;56.90
40622;DHT22;26324;52.040;11.528;2023-04-28T11:50:01;14.90;57.30
40622;DHT22;26324;52.040;11.528;2023-04-28T11:52:29;15.00;57.40
40622;DHT22;26324;52.040;11.528;2023-04-28T11:54:58;15.10;57.30
40622;DHT22;26324;52.040;11.528;2023-04-28T11:57:28;15.00;58.20
40622;DHT22;26324;52.040;11.528;2023-04-28T12:00:14;14.90;60.40
40622;DHT22;26324;52.040;11.528;2023-04-28T12:02:46;15.00;62.20
40622;DHT22;26324;52.040;11.528;2023-04-28T12:05:13;14.90;62.10
40622;DHT22;26324;52.040;11.528;2023-04-28T12:07:41;14.80;64.00
40622;DHT22;26324;52.040;11.528;2023-04-28T12:10:14;14.60;63.10
40622;DHT22;26324;52.040;11.528;2023-04-28T12:12:49;14.60;64.50
40622;DHT22;26324;52.040;11.528;2023-04-28T12:15:20;14.70;64.00
40622;DHT22;26324;52.040;11.528;2023-04-28T12:17:49;14.80;65.00
40622;DHT22;26324;52.040;11.528;2023-04-28T12:20:35;14.60;63.40
40622;DHT22;26324;52.040;11.528;2023-04-28T12:23:03;14.30;63.40
40622;DHT22;26324;52.040;11.528;2023-04-28T12:25:31;14.10;64.50
40622;DHT22;26324;52.040;11.528;2023-04-28T12:28:06;14.00;64.20
40622;DHT22;26324;52.040;11.528;2023-04-28T12:30:35;14.00;66.20
40622;DHT22;26324;52.040;11.528;2023-04-28T12:33:26;14.00;66.30
40622;DHT22;26324;52.040;11.528;2023-04-28T12:35:55;13.70;66.60
40622;DHT22;26324;52.040;11.528;2023-04-28T12:38:23;13.60;67.90
40622;DHT22;26324;52.040;11.528;2023-04-28T12:40:51;13.50;67.40
40622;DHT22;26324;52.040;11.528;2023-04-28T12:43:19;13.50;69.20
40622;DHT22;26324;52.040;11.528;2023-04-28T12:45:49;13.30;68.30
40622;DHT22;26324;52.040;11.528;2023-04-28T12:48:19;13.10;69.20
40622;DHT22;26324;52.040;11.528;2023-04-28T12:50:46;13.00;69.80
40622;DHT22;26324;52.040;11.528;2023-04-28T12:53:14;13.00;71.00
40622;DHT22;26324;52.040;11.528;2023-04-28T12:55:41;12.90;71.30
40622;DHT22;26324;52.040;11.528;2023-04-28T12:58:09;13.00;71.20
40622;DHT22;26324;52.040;11.528;2023-04-28T13:00:37;13.00;71.40
40622;DHT22;26324;52.040;11.528;2023-04-28T13:03:05;13.00;71.80
40622;DHT22;26324;52.040;11.528;2023-04-28T13:05:32;13.00;71.90
40622;DHT22;26324;52.040;11.528;2023-04-28T13:08:01;13.10;71.70
40622;DHT22;26324;52.040;11.528;2023-04-28T13:10:28;13.10;71.60
40622;DHT22;26324;52.040;11.528;2023-04-28T13:12:55;13.30;71.90
40622;DHT22;26324;52.040;11.528;2023-04-28T13:15:23;13.20;72.40
40622;DHT22;26324;52.040;11.528;2023-04-28T13:17:50;13.30;72.20
40622;DHT22;26324;52.040;11.528;2023-04-28T13:20:17;13.30;72.30
40622;DHT22;26324;52.040;11.528;2023-04-28T13:22:44;13.30;73.30
40622;DHT22;26324;52.040;11.528;2023-04-28T13:25:14;13.30;72.90
40622;DHT22;26324;52.040;11.528;2023-04-28T13:27:41;13.20;74.00
40622;DHT22;26324;52.040;11.528;2023-04-28T13:30:10;13.20;73.90
40622;DHT22;26324;52.040;11.528;2023-04-28T13:32:37;13.30;73.70
40622;DHT22;26324;52.040;11.528;2023-04-28T13:35:05;13.20;73.90
40622;DHT22;26324;52.040;11.528;2023-04-28T13:37:33;13.20;73.30
40622;DHT22;26324;52.040;11.528;2023-04-28T13:40:00;13.10;73.90
40622;DHT22;26324;52.040;11.528;2023-04-28T13:42:31;13.20;74.30
40622;DHT22;26324;52.040;11.528;2023-04-28T13:44:58;13.30;73.80
40622;DHT22;26324;52.040;11.528;2023-04-28T13:47:26;13.30;73.70
40622;DHT22;26324;52.040;11.528;2023-04-28T13:49:54;13.30;74.10
40622;DHT22;26324;52.040;11.528;2023-04-28T13:52:21;13.30;74.10
40622;DHT22;26324;52.040;11.528;2023-04-28T13:54:49;13.40;74.10
40622;DHT22;26324;52.040;11.528;2023-04-28T13:57:16;13.30;74.50
40622;DHT22;26324;52.040;11.528;2023-04-28T13:59:44;13.30;74.50
40622;DHT22;26324;52.040;11.528;2023-04-28T14:02:12;13.20;74.90
40622;DHT22;26324;52.040;11.528;2023-04-28T14:04:40;13.20;75.40
40622;DHT22;26324;52.040;11.528;2023-04-28T14:07:15;13.20;75.30
40622;DHT22;26324;52.040;11.528;2023-04-28T14:09:43;13.10;76.00
40622;DHT22;26324;52.040;11.528;2023-04-28T14:12:10;13.00;75.60
40622;DHT22;26324;52.040;11.528;2023-04-28T14:14:39;12.90;75.80
40622;DHT22;26324;52.040;11.528;2023-04-28T14:17:07;12.90;76.20
40622;DHT22;26324;52.040;11.528;2023-04-28T14:19:35;12.90;75.70
40622;DHT22;26324;52.040;11.528;2023-04-28T14:22:02;12.70;76.20
40622;DHT22;26324;52.040;11.528;2023-04-28T14:24:34;12.80;76.40
40622;DHT22;26324;52.040;11.528;2023-04-28T14:27:02;12.70;76.70
40622;DHT22;26324;52.040;11.528;2023-04-28T14:29:30;12.70;77.40
40622;DHT22;26324;52.040;11.528;2023-04-28T14:31:57;12.80;77.30
40622;DHT22;26324;52.040;11.528;2023-04-28T14:34:25;12.80;77.40
40622;DHT22;26324;52.040;11.528;2023-04-28T14:36:52;12.80;77.80
40622;DHT22;26324;52.040;11.528;2023-04-28T14:39:20;12.80;78.50
40622;DHT22;26324;52.040;11.528;2023-04-28T14:41:47;12.80;79.00
40622;DHT22;26324;52.040;11.528;2023-04-28T14:44:14;13.00;78.80
40622;DHT22;26324;52.040;11.528;2023-04-28T14:46:42;13.10;79.00
40622;DHT22;26324;52.040;11.528;2023-04-28T14:49:10;13.10;78.90
40622;DHT22;26324;52.040;11.528;2023-04-28T14:51:37;13.20;78.80
40622;DHT22;26324;52.040;11.528;2023-04-28T14:54:04;13.30;79.00
40622;DHT22;26324;52.040;11.528;2023-04-28T14:56:31;13.40;78.60
40622;DHT22;26324;52.040;11.528;2023-04-28T14:59:00;13.50;77.90
40622;DHT22;26324;52.040;11.528;2023-04-28T15:01:28;13.50;78.10
40622;DHT22;26324;52.040;11.528;2023-04-28T15:03:56;13.40;78.10
40622;DHT22;26324;52.040;11.528;2023-04-28T15:06:23;13.40;78.10
40622;DHT22;26324;52.040;11.528;2023-04-28T15:08:50;13.30;78.80
40622;DHT22;26324;52.040;11.528;2023-04-28T15:11:18;13.10;79.70
40622;DHT22;26324;52.040;11.528;2023-04-28T15:13:45;13.10;80.00
40622;DHT22;26324;52.040;11.528;2023-04-28T15:16:12;13.10;79.50
40622;DHT22;26324;52.040;11.528;2023-04-28T15:18:40;13.00;79.50
40622;DHT22;26324;52.040;11.528;2023-04-28T15:21:07;13.00;80.00
40622;DHT22;26324;52.040;11.528;2023-04-28T15:23:34;12.80;79.60
40622;DHT22;26324;52.040;11.528;2023-04-28T15:26:02;12.60;80.50
40622;DHT22;26324;52.040;11.528;2023-04-28T15:28:30;12.60;81.10
40622;DHT22;26324;52.040;11.528;2023-04-28T15:30:57;12.60;81.40
40622;DHT22;26324;52.040;11.528;2023-04-28T15:33:24;12.60;81.60
40622;DHT22;26324;52.040;11.528;2023-04-28T15:35:51;12.50;81.80
40622;DHT22;26324;52.040;11.528;2023-04-28T15:38:19;12.60;81.90
40622;DHT22;26324;52.040;11.528;2023-04-28T15:40:46;12.40;82.50
40622;DHT22;26324;52.040;11.528;2023-04-28T15:43:13;12.30;82.90
40622;DHT22;26324;52.040;11.528;2023-04-28T15:45:41;12.40;83.30
40622;DHT22;26324;52.040;11.528;2023-04-28T15:48:10;12.30;83.20
40622;DHT22;26324;52.040;11.528;2023-04-28T15:50:38;12.20;83.70
40622;DHT22;26324;52.040;11.528;2023-04-28T15:53:06;12.20;84.10
40622;DHT22;26324;52.040;11.528;2023-04-28T15:55:34;12.20;84.00
40622;DHT22;26324;52.040;11.528;2023-04-28T15:58:01;12.30;83.90
40622;DHT22;26324;52.040;11.528;2023-04-28T16:00:29;12.30;83.80